createdAt,value
2023-02-11T00:00:48.712Z,0.00
2023-02-11T00:01:48.569Z,0.00
2023-02-11T00:02:48.505Z,0.00
2023-02-11T00:03:48.646Z,0.00
2023-02-11T00:04:48.499Z,0.00
2023-02-11T00:05:48.958Z,0.00
2023-02-11T00:06:48.482Z,0.00
2023-02-11T00:07:48.476Z,0.00
2023-02-11T00:08:48.481Z,0.00
2023-02-11T00:09:48.499Z,0.00
2023-02-11T00:10:48.772Z,0.00
2023-02-11T00:11:48.484Z,0.00
2023-02-11T00:12:48.448Z,0.00
2023-02-11T00:13:48.458Z,0.00
2023-02-11T00:14:48.458Z,0.00
2023-02-11T00:15:48.704Z,0.00
2023-02-11T00:16:48.512Z,0.00
2023-02-11T00:17:48.413Z,0.00
2023-02-11T00:18:48.458Z,0.00
2023-02-11T00:19:48.413Z,0.00
2023-02-11T00:20:48.455Z,0.00
2023-02-11T00:21:48.417Z,0.00
2023-02-11T00:22:48.436Z,0.00
2023-02-11T00:23:48.408Z,0.00
2023-02-11T00:24:48.398Z,0.00
2023-02-11T00:25:48.714Z,0.00
2023-02-11T00:26:48.444Z,0.00
2023-02-11T00:27:48.396Z,0.00
2023-02-11T00:28:48.376Z,0.00
2023-02-11T00:29:48.394Z,0.00
2023-02-11T00:30:48.458Z,0.00
2023-02-11T00:31:48.523Z,0.00
2023-02-11T00:32:48.358Z,0.00
2023-02-11T00:33:48.357Z,0.00
2023-02-11T00:34:48.340Z,0.00
2023-02-11T00:35:48.761Z,0.00
2023-02-11T00:36:48.335Z,0.00
2023-02-11T00:37:48.357Z,0.00
2023-02-11T00:38:48.313Z,0.00
2023-02-11T00:39:48.326Z,0.00
2023-02-11T00:40:48.341Z,0.00
2023-02-11T00:41:48.309Z,0.00
2023-02-11T00:42:48.323Z,0.00
2023-02-11T00:43:48.311Z,0.00
2023-02-11T00:44:48.299Z,0.00
2023-02-11T00:45:48.722Z,0.00
2023-02-11T00:46:48.295Z,0.00
2023-02-11T00:47:48.290Z,0.00
2023-02-11T00:48:48.307Z,0.00
2023-02-11T00:49:48.284Z,0.00
2023-02-11T00:50:48.265Z,0.00
2023-02-11T00:51:48.254Z,0.00
2023-02-11T00:52:48.285Z,0.00
2023-02-11T00:53:48.245Z,0.00
2023-02-11T00:54:48.253Z,0.00
2023-02-11T00:55:48.722Z,0.00
2023-02-11T00:56:48.260Z,0.00
2023-02-11T00:57:48.261Z,0.00
2023-02-11T00:58:48.226Z,0.00
2023-02-11T00:59:48.229Z,0.00
2023-02-11T01:00:48.232Z,0.00
2023-02-11T01:01:48.316Z,0.00
2023-02-11T01:02:48.243Z,0.00
2023-02-11T01:03:48.200Z,0.00
2023-02-11T01:04:48.283Z,0.00
2023-02-11T01:05:48.562Z,0.00
2023-02-11T01:06:48.210Z,0.00
2023-02-11T01:07:48.203Z,0.00
2023-02-11T01:08:48.250Z,0.00
2023-02-11T01:09:48.188Z,0.00
2023-02-11T01:10:48.170Z,0.00
2023-02-11T01:11:48.181Z,0.00
2023-02-11T01:12:48.168Z,0.00
2023-02-11T01:13:48.206Z,0.00
2023-02-11T01:14:48.165Z,0.00
2023-02-11T01:15:48.276Z,0.00
2023-02-11T01:16:48.152Z,0.00
2023-02-11T01:17:48.167Z,0.00
2023-02-11T01:18:48.167Z,0.00
2023-02-11T01:19:48.169Z,0.00
2023-02-11T01:20:48.155Z,0.00
2023-02-11T01:21:48.138Z,0.00
2023-02-11T01:22:48.129Z,0.00
2023-02-11T01:23:48.183Z,0.00
2023-02-11T01:24:48.162Z,0.00
2023-02-11T01:25:48.359Z,0.00
2023-02-11T01:26:48.122Z,0.00
2023-02-11T01:27:48.153Z,0.00
2023-02-11T01:28:48.096Z,0.00
2023-02-11T01:29:48.145Z,0.00
2023-02-11T01:30:48.155Z,0.00
2023-02-11T01:31:48.125Z,0.00
2023-02-11T01:32:48.078Z,0.00
2023-02-11T01:33:48.082Z,0.00
2023-02-11T01:34:48.134Z,0.00
2023-02-11T01:35:48.388Z,0.00
2023-02-11T01:36:48.063Z,0.00
2023-02-11T01:37:48.055Z,0.00
2023-02-11T01:38:48.062Z,0.00
2023-02-11T01:39:48.038Z,0.00
2023-02-11T01:40:48.129Z,0.00
2023-02-11T01:41:48.046Z,0.00
2023-02-11T01:42:50.904Z,0.00
2023-02-11T01:43:48.052Z,0.00
2023-02-11T01:44:48.041Z,0.00
2023-02-11T01:45:48.346Z,0.00
2023-02-11T01:46:48.127Z,0.00
2023-02-11T01:47:48.023Z,0.00
2023-02-11T01:48:48.022Z,0.00
2023-02-11T01:49:48.027Z,0.00
2023-02-11T01:50:48.013Z,0.00
2023-02-11T01:51:47.994Z,0.00
2023-02-11T01:52:48.051Z,0.00
2023-02-11T01:53:48.001Z,0.00
2023-02-11T01:54:48.001Z,0.00
2023-02-11T01:55:48.419Z,0.00
2023-02-11T01:56:47.987Z,0.00
2023-02-11T01:57:47.982Z,0.00
2023-02-11T01:58:47.978Z,0.00
2023-02-11T01:59:47.964Z,0.00
2023-02-11T02:00:47.957Z,0.00
2023-02-11T02:01:48.028Z,0.00
2023-02-11T02:02:47.993Z,0.00
2023-02-11T02:03:47.993Z,0.00
2023-02-11T02:04:47.937Z,0.00
2023-02-11T02:05:48.426Z,0.00
2023-02-11T02:06:47.927Z,0.00
2023-02-11T02:07:47.966Z,0.00
2023-02-11T02:08:48.273Z,0.00
2023-02-11T02:09:47.910Z,0.00
2023-02-11T02:10:47.946Z,0.00
2023-02-11T02:11:47.918Z,0.00
2023-02-11T02:12:47.901Z,0.00
2023-02-11T02:13:47.906Z,0.00
2023-02-11T02:14:47.901Z,0.00
2023-02-11T02:15:48.217Z,0.00
2023-02-11T02:16:47.923Z,0.00
2023-02-11T02:17:47.955Z,0.00
2023-02-11T02:18:47.865Z,0.00
2023-02-11T02:19:47.926Z,0.00
2023-02-11T02:20:47.866Z,0.00
2023-02-11T02:21:47.884Z,0.00
2023-02-11T02:22:47.903Z,0.00
2023-02-11T02:23:47.894Z,0.00
2023-02-11T02:24:47.927Z,0.00
2023-02-11T02:25:48.010Z,0.00
2023-02-11T02:26:47.840Z,0.00
2023-02-11T02:27:47.833Z,0.00
2023-02-11T02:28:47.827Z,0.00
2023-02-11T02:29:47.885Z,0.00
2023-02-11T02:30:47.883Z,0.00
2023-02-11T02:31:47.952Z,0.00
2023-02-11T02:32:47.828Z,0.00
2023-02-11T02:33:47.795Z,0.00
2023-02-11T02:34:47.795Z,0.00
2023-02-11T02:35:48.134Z,0.00
2023-02-11T02:36:47.852Z,0.00
2023-02-11T02:37:47.813Z,0.00
2023-02-11T02:38:47.795Z,0.00
2023-02-11T02:39:47.783Z,0.00
2023-02-11T02:40:47.780Z,0.00
2023-02-11T02:41:47.838Z,0.00
2023-02-11T02:42:47.789Z,0.00
2023-02-11T02:43:47.790Z,0.00
2023-02-11T02:44:47.770Z,0.00
2023-02-11T02:45:47.825Z,0.00
2023-02-11T02:46:47.782Z,0.00
2023-02-11T02:47:47.774Z,0.00
2023-02-11T02:48:47.782Z,0.00
2023-02-11T02:49:47.738Z,0.00
2023-02-11T02:50:47.749Z,0.00
2023-02-11T02:51:47.769Z,0.00
2023-02-11T02:52:47.730Z,0.00
2023-02-11T02:53:47.725Z,0.00
2023-02-11T02:54:47.743Z,0.00
2023-02-11T02:55:47.954Z,0.00
2023-02-11T02:56:47.729Z,0.00
2023-02-11T02:57:47.707Z,0.00
2023-02-11T02:58:47.709Z,0.00
2023-02-11T02:59:47.739Z,0.00
2023-02-11T03:00:47.767Z,0.00
2023-02-11T03:01:47.679Z,0.00
2023-02-11T03:02:47.694Z,0.00
2023-02-11T03:03:47.709Z,0.00
2023-02-11T03:04:47.685Z,0.00
2023-02-11T03:05:47.831Z,0.00
2023-02-11T03:06:47.665Z,0.00
2023-02-11T03:07:47.665Z,0.00
2023-02-11T03:08:47.661Z,0.00
2023-02-11T03:09:47.683Z,0.00
2023-02-11T03:10:47.660Z,0.00
2023-02-11T03:11:47.644Z,0.00
2023-02-11T03:12:47.648Z,0.00
2023-02-11T03:13:47.635Z,0.00
2023-02-11T03:14:47.668Z,0.00
2023-02-11T03:15:47.715Z,0.00
2023-02-11T03:16:47.662Z,0.00
2023-02-11T03:17:47.635Z,0.00
2023-02-11T03:18:47.630Z,0.00
2023-02-11T03:19:47.619Z,0.00
2023-02-11T03:20:47.616Z,0.00
2023-02-11T03:21:47.628Z,0.00
2023-02-11T03:22:47.607Z,0.00
2023-02-11T03:23:47.610Z,0.00
2023-02-11T03:24:47.607Z,0.00
2023-02-11T03:25:47.671Z,0.00
2023-02-11T03:26:47.622Z,0.00
2023-02-11T03:27:47.591Z,0.00
2023-02-11T03:28:47.588Z,0.00
2023-02-11T03:29:47.578Z,0.00
2023-02-11T03:30:47.609Z,0.00
2023-02-11T03:31:47.627Z,0.00
2023-02-11T03:32:47.593Z,0.00
2023-02-11T03:33:47.573Z,0.00
2023-02-11T03:34:47.557Z,0.00
2023-02-11T03:35:55.859Z,0.00
2023-02-11T03:36:55.143Z,0.00
2023-02-11T03:37:47.539Z,0.00
2023-02-11T03:38:47.542Z,0.00
2023-02-11T03:39:47.550Z,0.00
2023-02-11T03:40:47.553Z,0.00
2023-02-11T03:41:47.571Z,0.00
2023-02-11T03:42:47.560Z,0.00
2023-02-11T03:43:47.545Z,0.00
2023-02-11T03:44:47.504Z,0.00
2023-02-11T03:45:47.626Z,0.00
2023-02-11T03:46:55.095Z,0.00
2023-02-11T03:47:47.545Z,0.00
2023-02-11T03:48:55.980Z,0.00
2023-02-11T03:49:56.003Z,0.00
2023-02-11T03:50:54.603Z,0.00
2023-02-11T03:51:55.567Z,0.00
2023-02-11T03:52:55.599Z,0.00
2023-02-11T03:53:55.036Z,0.00
2023-02-11T03:54:55.665Z,0.00
2023-02-11T03:55:55.704Z,0.00
2023-02-11T03:56:55.775Z,0.00
2023-02-11T03:57:56.787Z,0.00
2023-02-11T04:00:27.789Z,0.00
2023-02-11T04:01:35.404Z,0.00
2023-02-11T04:02:36.003Z,0.00
2023-02-11T04:05:09.356Z,0.00
2023-02-11T04:06:09.825Z,0.00
2023-02-11T04:07:09.329Z,0.00
2023-02-11T04:08:09.244Z,0.00
2023-02-11T04:09:09.276Z,0.00
2023-02-11T04:10:09.239Z,0.00
2023-02-11T04:11:09.219Z,0.00
2023-02-11T04:12:09.204Z,0.00
2023-02-11T04:13:09.218Z,0.00
2023-02-11T04:14:09.195Z,0.00
2023-02-11T04:15:09.230Z,0.00
2023-02-11T04:16:09.276Z,0.00
2023-02-11T04:17:09.208Z,0.00
2023-02-11T04:18:09.196Z,0.00
2023-02-11T04:19:09.201Z,0.00
2023-02-11T04:20:09.201Z,0.00
2023-02-11T04:21:09.181Z,0.00
2023-02-11T04:22:09.198Z,0.00
2023-02-11T04:23:09.156Z,0.00
2023-02-11T04:24:09.176Z,0.00
2023-02-11T04:25:09.168Z,0.00
2023-02-11T04:26:09.866Z,0.00
2023-02-11T04:27:10.020Z,0.00
2023-02-11T04:28:09.576Z,0.00
2023-02-11T04:29:09.993Z,0.00
2023-02-11T04:30:09.998Z,0.00
2023-02-11T04:31:09.894Z,0.00
2023-02-11T04:32:09.827Z,0.00
2023-02-11T04:33:09.701Z,0.00
2023-02-11T04:34:09.106Z,0.00
2023-02-11T04:35:09.124Z,0.00
2023-02-11T04:36:09.122Z,0.00
2023-02-11T04:37:09.108Z,0.00
2023-02-11T04:38:09.108Z,0.00
2023-02-11T04:39:09.105Z,0.00
2023-02-11T04:40:09.101Z,0.00
2023-02-11T04:41:09.106Z,0.00
2023-02-11T04:42:09.101Z,0.00
2023-02-11T04:43:09.074Z,0.00
2023-02-11T04:44:09.090Z,0.00
2023-02-11T04:45:09.090Z,0.00
2023-02-11T04:46:09.094Z,0.00
2023-02-11T04:47:09.092Z,0.00
2023-02-11T04:48:09.097Z,0.00
2023-02-11T04:49:09.070Z,0.00
2023-02-11T04:50:09.058Z,0.00
2023-02-11T04:51:09.058Z,0.00
2023-02-11T04:52:09.053Z,0.00
2023-02-11T04:53:09.049Z,0.00
2023-02-11T04:54:09.213Z,0.00
2023-02-11T04:55:09.056Z,0.00
2023-02-11T04:56:09.070Z,0.00
2023-02-11T04:57:09.077Z,0.00
2023-02-11T04:58:09.035Z,0.00
2023-02-11T04:59:09.027Z,0.00
2023-02-11T05:00:09.014Z,0.00
2023-02-11T05:01:09.066Z,0.00
2023-02-11T05:02:09.041Z,0.00
2023-02-11T05:03:08.999Z,0.00
2023-02-11T05:04:09.133Z,0.00
2023-02-11T05:05:09.001Z,0.00
2023-02-11T05:06:08.989Z,0.00
2023-02-11T05:07:08.997Z,0.00
2023-02-11T05:08:08.978Z,0.00
2023-02-11T05:09:08.986Z,0.00
2023-02-11T05:10:08.974Z,0.00
2023-02-11T05:11:08.976Z,0.00
2023-02-11T05:12:08.971Z,0.00
2023-02-11T05:13:08.985Z,0.00
2023-02-11T05:14:08.961Z,0.00
2023-02-11T05:15:08.960Z,0.00
2023-02-11T05:16:08.960Z,0.00
2023-02-11T05:17:08.963Z,0.00
2023-02-11T05:18:08.946Z,0.00
2023-02-11T05:19:08.955Z,0.00
2023-02-11T05:20:08.949Z,0.00
2023-02-11T05:21:08.940Z,0.00
2023-02-11T05:22:08.920Z,0.00
2023-02-11T05:23:08.930Z,0.00
2023-02-11T05:24:08.936Z,0.00
2023-02-11T05:25:08.930Z,0.00
2023-02-11T05:26:08.924Z,0.00
2023-02-11T05:27:08.912Z,0.00
2023-02-11T05:28:08.983Z,0.00
2023-02-11T05:29:08.918Z,0.00
2023-02-11T05:30:08.904Z,0.00
2023-02-11T05:31:08.940Z,0.00
2023-02-11T05:32:08.923Z,0.00
2023-02-11T05:33:08.904Z,0.00
2023-02-11T05:34:08.888Z,0.00
2023-02-11T05:35:08.880Z,0.00
2023-02-11T05:36:08.896Z,0.00
2023-02-11T05:37:08.943Z,0.00
2023-02-11T05:38:08.870Z,0.00
2023-02-11T05:39:08.880Z,0.00
2023-02-11T05:40:08.890Z,0.00
2023-02-11T05:41:08.878Z,0.00
2023-02-11T05:42:08.846Z,0.00
2023-02-11T05:43:08.861Z,0.00
2023-02-11T05:44:08.842Z,0.00
2023-02-11T05:45:08.847Z,0.00
2023-02-11T05:46:08.882Z,0.00
2023-02-11T05:47:08.843Z,0.00
2023-02-11T05:48:08.859Z,0.00
2023-02-11T05:49:08.859Z,0.00
2023-02-11T05:50:08.923Z,0.00
2023-02-11T05:51:08.874Z,0.00
2023-02-11T05:52:08.836Z,0.00
2023-02-11T05:53:08.824Z,0.00
2023-02-11T05:54:08.808Z,0.00
2023-02-11T05:55:08.800Z,0.00
2023-02-11T05:56:08.798Z,0.00
2023-02-11T05:57:08.808Z,0.00
2023-02-11T05:58:08.785Z,0.00
2023-02-11T05:59:08.797Z,0.00
2023-02-11T06:00:08.792Z,0.00
2023-02-11T06:01:08.780Z,0.00
2023-02-11T06:02:08.839Z,0.00
2023-02-11T06:03:08.786Z,0.00
2023-02-11T06:04:08.783Z,0.00
2023-02-11T06:05:08.774Z,0.00
2023-02-11T06:06:08.761Z,0.00
2023-02-11T06:07:08.783Z,0.00
2023-02-11T06:08:08.788Z,0.00
2023-02-11T06:09:08.777Z,0.00
2023-02-11T06:10:08.743Z,0.00
2023-02-11T06:11:08.741Z,4.00
2023-02-11T06:12:08.760Z,4.00
2023-02-11T06:13:08.738Z,4.00
2023-02-11T06:14:08.769Z,0.00
2023-02-11T06:15:08.735Z,0.00
2023-02-11T06:16:08.790Z,0.00
2023-02-11T06:17:08.734Z,4.00
2023-02-11T06:18:08.724Z,4.00
2023-02-11T06:19:08.721Z,4.00
2023-02-11T06:20:08.725Z,4.00
2023-02-11T06:21:08.726Z,4.00
2023-02-11T06:22:08.720Z,8.00
2023-02-11T06:23:08.716Z,4.00
2023-02-11T06:24:08.692Z,8.00
2023-02-11T06:25:08.714Z,4.00
2023-02-11T06:26:08.722Z,8.00
2023-02-11T06:27:17.268Z,12.00
2023-02-11T06:28:08.720Z,12.00
2023-02-11T06:29:08.744Z,12.00
2023-02-11T06:30:08.690Z,16.00
2023-02-11T06:31:08.744Z,12.00
2023-02-11T06:32:19.476Z,12.00
2023-02-11T06:33:08.701Z,16.00
2023-02-11T06:34:08.753Z,16.00
2023-02-11T06:35:11.628Z,16.00
2023-02-11T06:36:09.363Z,20.00
2023-02-11T06:37:09.098Z,20.00
2023-02-11T06:38:08.653Z,24.00
2023-02-11T06:39:08.640Z,28.00
2023-02-11T06:40:08.637Z,32.00
2023-02-11T06:41:08.666Z,32.00
2023-02-11T06:42:08.655Z,32.00
2023-02-11T06:43:08.639Z,36.00
2023-02-11T06:44:08.671Z,44.00
2023-02-11T06:45:08.626Z,40.00
2023-02-11T06:46:08.677Z,48.00
2023-02-11T06:47:08.620Z,48.00
2023-02-11T06:48:08.630Z,44.00
2023-02-11T06:49:08.606Z,48.00
2023-02-11T06:50:08.654Z,48.00
2023-02-11T06:51:08.612Z,52.00
2023-02-11T06:52:08.604Z,52.00
2023-02-11T06:53:08.598Z,52.00
2023-02-11T06:54:08.613Z,60.00
2023-02-11T06:55:08.580Z,64.00
2023-02-11T06:56:08.590Z,60.00
2023-02-11T06:57:08.597Z,64.00
2023-02-11T06:58:08.577Z,68.00
2023-02-11T06:59:08.581Z,72.00
2023-02-11T07:00:08.580Z,80.00
2023-02-11T07:01:08.557Z,104.00
2023-02-11T07:02:08.619Z,96.00
2023-02-11T07:03:08.683Z,80.00
2023-02-11T07:04:08.564Z,88.00
2023-02-11T07:05:08.573Z,88.00
2023-02-11T07:06:08.538Z,84.00
2023-02-11T07:07:08.556Z,92.00
2023-02-11T07:08:08.599Z,92.00
2023-02-11T07:09:08.542Z,84.00
2023-02-11T07:10:08.537Z,100.00
2023-02-11T07:11:08.532Z,104.00
2023-02-11T07:12:08.519Z,104.00
2023-02-11T07:13:08.523Z,112.00
2023-02-11T07:14:08.549Z,112.00
2023-02-11T07:15:08.523Z,120.00
2023-02-11T07:16:08.610Z,120.00
2023-02-11T07:17:08.527Z,128.00
2023-02-11T07:18:08.518Z,140.00
2023-02-11T07:19:08.507Z,148.00
2023-02-11T07:20:08.604Z,160.00
2023-02-11T07:21:08.517Z,156.00
2023-02-11T07:22:08.498Z,156.00
2023-02-11T07:23:08.500Z,180.00
2023-02-11T07:24:10.909Z,188.00
2023-02-11T07:25:08.491Z,192.00
2023-02-11T07:26:08.498Z,204.00
2023-02-11T07:27:08.506Z,204.00
2023-02-11T07:28:08.529Z,192.00
2023-02-11T07:29:08.479Z,196.00
2023-02-11T07:30:08.460Z,184.00
2023-02-11T07:31:08.520Z,228.00
2023-02-11T07:32:08.540Z,220.00
2023-02-11T07:33:08.468Z,208.00
2023-02-11T07:34:08.472Z,224.00
2023-02-11T07:35:08.443Z,212.00
2023-02-11T07:36:08.461Z,252.00
2023-02-11T07:37:08.436Z,296.00
2023-02-11T07:38:08.437Z,300.00
2023-02-11T07:39:08.445Z,404.00
2023-02-11T07:40:08.432Z,388.00
2023-02-11T07:41:08.420Z,384.00
2023-02-11T07:42:08.429Z,380.00
2023-02-11T07:43:08.420Z,324.00
2023-02-11T07:44:08.414Z,300.00
2023-02-11T07:50:29.905Z,484.00
2023-02-11T07:51:29.785Z,512.00
2023-02-11T07:52:29.333Z,524.00
2023-02-11T07:53:29.129Z,484.00
2023-02-11T07:54:29.841Z,404.00
2023-02-11T07:55:29.128Z,376.00
2023-02-11T07:56:29.128Z,400.00
2023-02-11T07:57:29.148Z,368.00
2023-02-11T07:58:29.137Z,400.00
2023-02-11T07:59:29.162Z,404.00
2023-02-11T08:00:29.124Z,404.00
2023-02-11T08:01:29.124Z,408.00
2023-02-11T08:02:29.242Z,376.00
2023-02-11T08:03:29.093Z,396.00
2023-02-11T08:06:59.090Z,240.00
2023-02-11T08:12:43.477Z,208.00
2023-02-11T08:13:43.428Z,176.00
2023-02-11T08:14:43.603Z,196.00
2023-02-11T08:15:44.086Z,244.00
2023-02-11T08:16:44.172Z,244.00
2023-02-11T08:17:43.474Z,240.00
2023-02-11T08:18:43.344Z,256.00
2023-02-11T08:19:43.340Z,336.00
2023-02-11T08:20:43.353Z,376.00
2023-02-11T08:21:43.481Z,324.00
2023-02-11T08:22:43.402Z,336.00
2023-02-11T08:23:46.313Z,336.00
2023-02-11T08:24:43.324Z,324.00
2023-02-11T08:25:43.527Z,392.00
2023-02-11T08:26:43.331Z,408.00
2023-02-11T08:27:44.314Z,388.00
2023-02-11T08:28:43.338Z,372.00
2023-02-11T08:29:43.375Z,300.00
2023-02-11T08:30:43.341Z,268.00
2023-02-11T08:41:08.221Z,280.00
2023-02-11T08:42:08.104Z,288.00
2023-02-11T08:43:08.225Z,240.00
2023-02-11T08:44:09.665Z,212.00
2023-02-11T08:45:08.864Z,240.00
2023-02-11T08:46:08.799Z,328.00
2023-02-11T08:47:08.863Z,408.00
2023-02-11T08:48:08.882Z,368.00
2023-02-11T08:49:08.045Z,384.00
2023-02-11T08:50:08.665Z,384.00
2023-02-11T08:51:08.714Z,308.00
2023-02-11T08:52:08.011Z,268.00
2023-02-11T08:53:08.022Z,284.00
2023-02-11T08:54:08.102Z,296.00
2023-02-11T08:55:07.997Z,292.00
2023-02-11T08:56:07.999Z,276.00
2023-02-11T08:57:07.990Z,280.00
2023-02-11T08:58:07.986Z,200.00
2023-02-11T08:59:07.979Z,184.00
2023-02-11T09:00:07.964Z,208.00
2023-02-11T09:01:07.972Z,264.00
2023-02-11T09:02:08.028Z,368.00
2023-02-11T09:03:08.002Z,396.00
2023-02-11T09:04:07.987Z,500.00
2023-02-11T09:05:07.942Z,492.00
2023-02-11T09:06:07.980Z,436.00
2023-02-11T09:07:07.929Z,428.00
2023-02-11T09:08:07.954Z,380.00
2023-02-11T09:09:07.925Z,392.00
2023-02-11T09:10:07.944Z,392.00
2023-02-11T09:11:07.935Z,476.00
2023-02-11T09:12:07.917Z,412.00
2023-02-11T09:13:07.945Z,380.00
2023-02-11T09:14:07.911Z,388.00
2023-02-11T09:15:07.920Z,368.00
2023-02-11T09:16:07.914Z,376.00
2023-02-11T09:17:07.971Z,456.00
2023-02-11T09:18:07.892Z,348.00
2023-02-11T09:19:07.893Z,316.00
2023-02-11T09:20:10.648Z,328.00
2023-02-11T09:21:07.899Z,344.00
2023-02-11T09:22:07.901Z,352.00
2023-02-11T09:23:07.882Z,420.00
2023-02-11T09:24:07.889Z,392.00
2023-02-11T09:25:07.909Z,400.00
2023-02-11T09:26:09.325Z,344.00
2023-02-11T09:27:07.880Z,332.00
2023-02-11T09:28:07.890Z,332.00
2023-02-11T09:29:07.969Z,332.00
2023-02-11T09:30:07.864Z,376.00
2023-02-11T09:31:07.979Z,312.00
2023-02-11T09:32:09.825Z,408.00
2023-02-11T09:33:07.872Z,404.00
2023-02-11T09:34:07.859Z,392.00
2023-02-11T09:35:07.848Z,420.00
2023-02-11T09:36:07.843Z,396.00
2023-02-11T09:37:07.853Z,388.00
2023-02-11T09:38:07.862Z,456.00
2023-02-11T09:39:07.835Z,484.00
2023-02-11T09:40:07.836Z,408.00
2023-02-11T09:41:07.835Z,352.00
2023-02-11T09:42:07.835Z,360.00
2023-02-11T09:43:07.824Z,348.00
2023-02-11T09:44:07.860Z,344.00
2023-02-11T09:45:07.826Z,304.00
2023-02-11T09:47:53.013Z,268.00
2023-02-11T09:48:52.385Z,316.00
2023-02-11T09:49:52.370Z,300.00
2023-02-11T09:50:52.649Z,288.00
2023-02-11T09:51:52.357Z,316.00
2023-02-11T09:52:52.366Z,348.00
2023-02-11T09:53:52.449Z,404.00
2023-02-11T09:54:52.380Z,428.00
2023-02-11T09:55:53.100Z,384.00
2023-02-11T09:56:53.169Z,356.00
2023-02-11T09:57:52.362Z,344.00
2023-02-11T09:58:53.206Z,368.00
2023-02-11T09:59:53.318Z,364.00
2023-02-11T10:00:53.351Z,372.00
2023-02-11T10:01:53.202Z,360.00
2023-02-11T10:02:52.322Z,400.00
2023-02-11T10:04:01.583Z,440.00
2023-02-11T10:04:52.358Z,400.00
2023-02-11T10:05:52.332Z,456.00
2023-02-11T10:06:52.311Z,400.00
2023-02-11T10:07:52.326Z,380.00
2023-02-11T10:08:52.308Z,344.00
2023-02-11T10:09:52.318Z,344.00
2023-02-11T10:10:52.701Z,320.00
2023-02-11T10:11:52.306Z,336.00
2023-02-11T10:12:52.312Z,424.00
2023-02-11T10:13:52.290Z,440.00
2023-02-11T10:14:52.334Z,496.00
2023-02-11T10:15:52.325Z,676.00
2023-02-11T10:16:52.296Z,500.00
2023-02-11T10:17:52.289Z,476.00
2023-02-11T10:18:52.286Z,420.00
2023-02-11T10:19:52.291Z,404.00
2023-02-11T10:20:52.630Z,392.00
2023-02-11T10:21:52.293Z,352.00
2023-02-11T10:22:52.940Z,376.00
2023-02-11T10:23:52.559Z,348.00
2023-02-11T10:24:52.281Z,380.00
2023-02-11T10:25:52.261Z,452.00
2023-02-11T10:26:52.286Z,412.00
2023-02-11T10:27:53.177Z,448.00
2023-02-11T10:28:52.254Z,460.00
2023-02-11T10:29:55.009Z,492.00
2023-02-11T10:30:54.448Z,620.00
2023-02-11T10:31:52.315Z,556.00
2023-02-11T10:32:52.286Z,420.00
2023-02-11T10:33:52.255Z,500.00
2023-02-11T10:34:52.258Z,480.00
2023-02-11T10:35:52.229Z,544.00
2023-02-11T10:36:52.265Z,532.00
2023-02-11T10:37:52.226Z,416.00
2023-02-11T10:38:52.237Z,396.00
2023-02-11T10:39:52.227Z,436.00
2023-02-11T10:40:52.457Z,468.00
2023-02-11T10:41:52.301Z,468.00
2023-02-11T10:42:55.425Z,460.00
2023-02-11T10:43:52.241Z,492.00
2023-02-11T10:44:52.222Z,420.00
2023-02-11T10:45:52.214Z,368.00
2023-02-11T10:46:52.226Z,440.00
2023-02-11T10:47:52.211Z,428.00
2023-02-11T10:48:52.264Z,408.00
2023-02-11T10:49:52.207Z,416.00
2023-02-11T10:50:52.485Z,412.00
2023-02-11T10:51:52.197Z,448.00
2023-02-11T10:52:52.204Z,376.00
2023-02-11T10:53:52.214Z,348.00
2023-02-11T10:54:52.234Z,388.00
2023-02-11T10:55:52.221Z,412.00
2023-02-11T10:56:52.206Z,424.00
2023-02-11T10:57:52.186Z,520.00
2023-02-11T10:58:52.175Z,516.00
2023-02-11T10:59:52.196Z,496.00
2023-02-11T11:00:52.788Z,544.00
2023-02-11T11:01:52.214Z,544.00
2023-02-11T11:02:52.175Z,520.00
2023-02-11T11:03:52.179Z,504.00
2023-02-11T11:04:52.190Z,440.00
2023-02-11T11:05:52.199Z,512.00
2023-02-11T11:06:52.196Z,512.00
2023-02-11T11:07:52.166Z,464.00
2023-02-11T11:08:52.140Z,580.00
2023-02-11T11:09:52.143Z,532.00
2023-02-11T11:10:52.407Z,484.00
2023-02-11T11:11:52.153Z,440.00
2023-02-11T11:12:52.951Z,468.00
2023-02-11T11:13:52.168Z,548.00
2023-02-11T11:14:52.157Z,544.00
2023-02-11T11:15:52.206Z,508.00
2023-02-11T11:16:52.138Z,528.00
2023-02-11T11:17:52.128Z,452.00
2023-02-11T11:18:52.123Z,548.00
2023-02-11T11:19:52.164Z,472.00
2023-02-11T11:20:52.609Z,548.00
2023-02-11T11:21:52.196Z,456.00
2023-02-11T11:22:52.124Z,460.00
2023-02-11T11:23:52.122Z,424.00
2023-02-11T11:24:52.115Z,504.00
2023-02-11T11:25:52.108Z,408.00
2023-02-11T11:26:52.160Z,396.00
2023-02-11T11:27:52.125Z,412.00
2023-02-11T11:28:52.124Z,360.00
2023-02-11T11:29:52.106Z,396.00
2023-02-11T11:30:52.604Z,344.00
2023-02-11T11:31:52.210Z,352.00
2023-02-11T11:32:52.090Z,436.00
2023-02-11T11:33:52.086Z,368.00
2023-02-11T11:34:52.077Z,416.00
2023-02-11T11:35:52.273Z,436.00
2023-02-11T11:36:52.074Z,420.00
2023-02-11T11:37:52.085Z,476.00
2023-02-11T11:38:52.095Z,420.00
2023-02-11T11:39:52.079Z,356.00
2023-02-11T11:40:52.350Z,372.00
2023-02-11T11:41:52.050Z,356.00
2023-02-11T11:42:52.076Z,336.00
2023-02-11T11:43:52.048Z,332.00
2023-02-11T11:44:52.047Z,344.00
2023-02-11T11:45:52.070Z,340.00
2023-02-11T11:46:52.100Z,376.00
2023-02-11T11:47:52.057Z,396.00
2023-02-11T11:48:52.039Z,368.00
2023-02-11T11:49:52.027Z,292.00
2023-02-11T11:50:52.370Z,244.00
2023-02-11T11:51:52.064Z,248.00
2023-02-11T11:52:52.046Z,244.00
2023-02-11T11:53:52.017Z,240.00
2023-02-11T11:54:52.192Z,292.00
2023-02-11T11:55:52.037Z,328.00
2023-02-11T11:56:52.953Z,308.00
2023-02-11T11:57:52.034Z,348.00
2023-02-11T11:58:52.022Z,380.00
2023-02-11T11:59:52.013Z,392.00
2023-02-11T12:01:01.101Z,416.00
2023-02-11T12:01:52.041Z,384.00
2023-02-11T12:02:55.628Z,456.00
2023-02-11T12:05:30.986Z,432.00
2023-02-11T12:06:31.576Z,380.00
2023-02-11T12:07:30.971Z,404.00
2023-02-11T12:08:30.982Z,424.00
2023-02-11T12:09:30.973Z,436.00
2023-02-11T12:10:30.966Z,456.00
2023-02-11T12:11:30.968Z,396.00
2023-02-11T12:12:30.978Z,428.00
2023-02-11T12:13:30.946Z,352.00
2023-02-11T12:14:30.945Z,368.00
2023-02-11T12:15:30.958Z,332.00
2023-02-11T12:16:30.976Z,356.00
2023-02-11T12:17:30.957Z,348.00
2023-02-11T12:18:30.946Z,368.00
2023-02-11T12:19:30.944Z,308.00
2023-02-11T12:20:30.955Z,404.00
2023-02-11T12:21:30.937Z,432.00
2023-02-11T12:22:30.963Z,384.00
2023-02-11T12:23:30.921Z,412.00
2023-02-11T12:24:30.923Z,556.00
2023-02-11T12:25:30.921Z,488.00
2023-02-11T12:26:31.033Z,472.00
2023-02-11T12:27:30.929Z,480.00
2023-02-11T12:28:31.043Z,604.00
2023-02-11T12:29:30.922Z,560.00
2023-02-11T12:30:30.925Z,452.00
2023-02-11T12:31:30.939Z,516.00
2023-02-11T12:32:31.266Z,500.00
2023-02-11T12:33:30.912Z,432.00
2023-02-11T12:34:30.929Z,452.00
2023-02-11T12:35:40.194Z,484.00
2023-02-11T12:36:30.930Z,440.00
2023-02-11T12:37:30.919Z,480.00
2023-02-11T12:38:30.884Z,456.00
2023-02-11T12:39:30.884Z,524.00
2023-02-11T12:40:30.882Z,484.00
2023-02-11T12:41:30.899Z,428.00
2023-02-11T12:42:30.885Z,464.00
2023-02-11T12:43:30.881Z,452.00
2023-02-11T12:44:30.890Z,464.00
2023-02-11T12:45:30.907Z,476.00
2023-02-11T12:46:30.868Z,444.00
2023-02-11T12:47:30.879Z,412.00
2023-02-11T12:48:30.873Z,532.00
2023-02-11T12:49:30.876Z,460.00
2023-02-11T12:50:30.876Z,400.00
2023-02-11T12:51:30.879Z,352.00
2023-02-11T12:52:30.845Z,520.00
2023-02-11T12:53:30.847Z,524.00
2023-02-11T12:54:30.861Z,448.00
2023-02-11T12:55:30.840Z,432.00
2023-02-11T12:56:32.123Z,408.00
2023-02-11T12:57:31.752Z,428.00
2023-02-11T12:58:43.995Z,596.00
2023-02-11T12:59:30.866Z,588.00
2023-02-11T13:00:30.862Z,708.00
2023-02-11T13:01:30.927Z,640.00
2023-02-11T13:02:30.909Z,492.00
2023-02-11T13:03:30.840Z,372.00
2023-02-11T13:04:30.895Z,444.00
2023-02-11T13:05:30.831Z,520.00
2023-02-11T13:06:31.686Z,808.00
2023-02-11T13:07:30.815Z,836.00
2023-02-11T13:08:30.809Z,796.00
2023-02-11T13:09:30.866Z,700.00
2023-02-11T13:10:30.835Z,620.00
2023-02-11T13:11:30.824Z,580.00
2023-02-11T13:12:30.825Z,640.00
2023-02-11T13:13:33.736Z,620.00
2023-02-11T13:14:30.814Z,536.00
2023-02-11T13:15:30.806Z,520.00
2023-02-11T13:16:30.884Z,456.00
2023-02-11T13:17:30.780Z,520.00
2023-02-11T13:18:30.799Z,456.00
2023-02-11T13:19:30.813Z,368.00
2023-02-11T13:20:30.791Z,400.00
2023-02-11T13:21:30.810Z,360.00
2023-02-11T13:22:30.790Z,452.00